HAZ3174 ZSCN-ZGSZ
Flight info
| Callsign | HAZ3174 |
|---|---|
| Flight time | 1h 18m |
| Altitude | 32100 |
| Route | OSO92D OSONO W19 ATKAV W20 SALIV R473 NOLON W90 POU W7 SAREX SAREX3 |
| Aircraft | A320/M-SDE3FGHIRWY/LB1 |
Departure
| Time | 2026-04-16 08:43 |
|---|---|
| Airport | Nanchang Changbei International Airport (ZSCN) |
Arrival
| Time | 2026-04-16 10:01 |
|---|---|
| Airport | Shenzhen Bao'an International Airport (ZGSZ) |
| Time | Latitude | Longitude | Altitude | Speed | Heading |
|---|---|---|---|---|---|
| 2026-04-16 08:02 | 28.86164 | 115.90697 | 166 ft | 0 kts | 112° |
| 2026-04-16 08:35 | 28.86170 | 115.90682 | 167 ft | 2 kts | 115° |
| 2026-04-16 08:35 | 28.86176 | 115.90668 | 167 ft | 2 kts | 117° |
| 2026-04-16 08:35 | 28.86183 | 115.90655 | 167 ft | 0 kts | 123° |
| 2026-04-16 08:36 | 28.86192 | 115.90640 | 165 ft | 2 kts | 131° |
| 2026-04-16 08:36 | 28.86203 | 115.90627 | 166 ft | 2 kts | 150° |
| 2026-04-16 08:36 | 28.86219 | 115.90620 | 166 ft | 2 kts | 184° |
| 2026-04-16 08:36 | 28.86232 | 115.90623 | 166 ft | 1 kts | 204° |
| 2026-04-16 08:37 | 28.86233 | 115.90623 | 166 ft | 0 kts | 204° |
| 2026-04-16 08:38 | 28.86232 | 115.90623 | 166 ft | 1 kts | 204° |
| 2026-04-16 08:38 | 28.86195 | 115.90604 | 166 ft | 10 kts | 203° |
| 2026-04-16 08:39 | 28.86103 | 115.90560 | 166 ft | 22 kts | 201° |
| 2026-04-16 08:39 | 28.85975 | 115.90490 | 166 ft | 14 kts | 236° |
| 2026-04-16 08:39 | 28.85993 | 115.90391 | 166 ft | 14 kts | 294° |
| 2026-04-16 08:39 | 28.86027 | 115.90286 | 165 ft | 15 kts | 277° |
| 2026-04-16 08:40 | 28.85953 | 115.90217 | 165 ft | 17 kts | 204° |
| 2026-04-16 08:40 | 28.85811 | 115.90147 | 166 ft | 26 kts | 203° |
| 2026-04-16 08:40 | 28.85644 | 115.90066 | 166 ft | 27 kts | 203° |
| 2026-04-16 08:40 | 28.85475 | 115.89985 | 166 ft | 26 kts | 203° |
| 2026-04-16 08:41 | 28.85305 | 115.89902 | 166 ft | 27 kts | 202° |
| 2026-04-16 08:41 | 28.85131 | 115.89816 | 166 ft | 27 kts | 202° |
| 2026-04-16 08:41 | 28.85033 | 115.89732 | 166 ft | 8 kts | 281° |
| 2026-04-16 08:41 | 28.85049 | 115.89678 | 165 ft | 7 kts | 294° |
| 2026-04-16 08:42 | 28.85094 | 115.89604 | 164 ft | 11 kts | 352° |
| 2026-04-16 08:42 | 28.85145 | 115.89613 | 164 ft | 0 kts | 22° |
| 2026-04-16 08:42 | 28.85320 | 115.89698 | 166 ft | 64 kts | 23° |
| 2026-04-16 08:43 | 28.85930 | 115.89994 | 165 ft | 124 kts | 23° |
| 2026-04-16 08:43 | 28.86880 | 115.90452 | 202 ft | 168 kts | 23° |
| 2026-04-16 08:43 | 28.87956 | 115.90979 | 825 ft | 168 kts | 22° |
| 2026-04-16 08:43 | 28.89024 | 115.91502 | 1558 ft | 166 kts | 21° |
| 2026-04-16 08:44 | 28.90107 | 115.92026 | 2086 ft | 176 kts | 20° |
| 2026-04-16 08:44 | 28.91307 | 115.92602 | 2360 ft | 198 kts | 20° |
| 2026-04-16 08:44 | 28.92624 | 115.93236 | 2774 ft | 210 kts | 20° |
| 2026-04-16 08:44 | 28.93980 | 115.93895 | 3406 ft | 214 kts | 20° |
| 2026-04-16 08:45 | 28.95353 | 115.94565 | 4142 ft | 216 kts | 21° |
| 2026-04-16 08:45 | 28.96749 | 115.95246 | 4852 ft | 221 kts | 21° |
| 2026-04-16 08:45 | 28.98182 | 115.95943 | 5516 ft | 227 kts | 20° |
| 2026-04-16 08:45 | 28.99650 | 115.96657 | 6193 ft | 232 kts | 20° |
| 2026-04-16 08:46 | 29.01194 | 115.97235 | 6832 ft | 235 kts | 3° |
| 2026-04-16 08:46 | 29.02806 | 115.97084 | 7500 ft | 234 kts | 338° |
| 2026-04-16 08:46 | 29.04188 | 115.96199 | 8188 ft | 231 kts | 315° |
| 2026-04-16 08:46 | 29.05142 | 115.94746 | 8886 ft | 230 kts | 292° |
| 2026-04-16 08:47 | 29.05501 | 115.92980 | 9617 ft | 231 kts | 269° |
| 2026-04-16 08:47 | 29.05197 | 115.91181 | 10336 ft | 234 kts | 247° |
| 2026-04-16 08:47 | 29.04265 | 115.89657 | 11034 ft | 239 kts | 225° |
| 2026-04-16 08:47 | 29.02782 | 115.88631 | 11403 ft | 264 kts | 205° |
| 2026-04-16 08:48 | 29.00989 | 115.87848 | 11681 ft | 286 kts | 204° |
| 2026-04-16 08:48 | 28.99697 | 115.87293 | 11845 ft | 302 kts | 204° |
| 2026-04-16 08:48 | 28.97656 | 115.86420 | 12037 ft | 325 kts | 204° |
| 2026-04-16 08:48 | 28.95465 | 115.85482 | 12213 ft | 347 kts | 204° |
| 2026-04-16 08:49 | 28.93189 | 115.84453 | 12691 ft | 355 kts | 205° |
| 2026-04-16 08:49 | 28.90896 | 115.83359 | 13341 ft | 359 kts | 206° |
| 2026-04-16 08:49 | 28.88585 | 115.82229 | 13964 ft | 362 kts | 207° |
| 2026-04-16 08:49 | 28.86265 | 115.81086 | 14565 ft | 364 kts | 207° |
| 2026-04-16 08:50 | 28.83932 | 115.79937 | 15181 ft | 366 kts | 207° |
| 2026-04-16 08:50 | 28.81621 | 115.78806 | 15799 ft | 367 kts | 208° |
| 2026-04-16 08:50 | 28.79233 | 115.77643 | 16376 ft | 370 kts | 208° |
| 2026-04-16 08:50 | 28.76892 | 115.76509 | 16953 ft | 371 kts | 208° |
| 2026-04-16 08:51 | 28.74475 | 115.75342 | 17544 ft | 374 kts | 208° |
| 2026-04-16 08:51 | 28.72074 | 115.74185 | 18139 ft | 375 kts | 208° |
| 2026-04-16 08:51 | 28.69664 | 115.73023 | 18629 ft | 377 kts | 208° |
| 2026-04-16 08:51 | 28.67240 | 115.71853 | 19117 ft | 380 kts | 208° |
| 2026-04-16 08:52 | 28.64835 | 115.70693 | 19595 ft | 381 kts | 208° |
| 2026-04-16 08:52 | 28.62366 | 115.69501 | 19812 ft | 391 kts | 208° |
| 2026-04-16 08:52 | 28.59829 | 115.68277 | 20022 ft | 400 kts | 208° |
| 2026-04-16 08:52 | 28.57256 | 115.67038 | 20390 ft | 403 kts | 208° |
| 2026-04-16 08:53 | 28.54660 | 115.65794 | 20825 ft | 406 kts | 208° |
| 2026-04-16 08:53 | 28.52054 | 115.64548 | 21255 ft | 408 kts | 208° |
| 2026-04-16 08:53 | 28.49435 | 115.63293 | 21694 ft | 409 kts | 208° |
| 2026-04-16 08:53 | 28.46809 | 115.62032 | 22116 ft | 410 kts | 208° |
| 2026-04-16 08:54 | 28.44173 | 115.60765 | 22531 ft | 412 kts | 208° |
| 2026-04-16 08:54 | 28.41454 | 115.59669 | 22883 ft | 420 kts | 200° |
| 2026-04-16 08:54 | 28.38534 | 115.59159 | 23228 ft | 431 kts | 189° |
| 2026-04-16 08:54 | 28.35496 | 115.59327 | 23569 ft | 444 kts | 178° |
| 2026-04-16 08:55 | 28.32470 | 115.60191 | 23878 ft | 454 kts | 168° |
| 2026-04-16 08:55 | 28.29463 | 115.61296 | 24201 ft | 455 kts | 169° |
| 2026-04-16 08:55 | 28.26446 | 115.62399 | 24526 ft | 456 kts | 169° |
| 2026-04-16 08:55 | 28.23421 | 115.63500 | 24844 ft | 457 kts | 169° |
| 2026-04-16 08:56 | 28.20390 | 115.64599 | 25148 ft | 458 kts | 169° |
| 2026-04-16 08:56 | 28.17345 | 115.65704 | 25445 ft | 460 kts | 168° |
| 2026-04-16 08:56 | 28.14297 | 115.66812 | 25732 ft | 461 kts | 168° |
| 2026-04-16 08:56 | 28.11237 | 115.67925 | 25993 ft | 463 kts | 168° |
| 2026-04-16 08:57 | 28.08166 | 115.69043 | 26264 ft | 464 kts | 168° |
| 2026-04-16 08:57 | 28.05085 | 115.70160 | 26545 ft | 466 kts | 168° |
| 2026-04-16 08:57 | 28.01996 | 115.71271 | 26818 ft | 466 kts | 169° |
| 2026-04-16 08:57 | 27.98847 | 115.72019 | 27082 ft | 459 kts | 179° |
| 2026-04-16 08:58 | 27.95683 | 115.72159 | 27466 ft | 451 kts | 188° |
| 2026-04-16 08:58 | 27.92606 | 115.71725 | 27864 ft | 443 kts | 197° |
| 2026-04-16 08:58 | 27.89668 | 115.70772 | 28292 ft | 436 kts | 204° |
| 2026-04-16 08:58 | 27.86813 | 115.69627 | 28727 ft | 435 kts | 204° |
| 2026-04-16 08:59 | 27.83963 | 115.68485 | 29043 ft | 435 kts | 204° |
| 2026-04-16 08:59 | 27.81109 | 115.67341 | 29375 ft | 435 kts | 204° |
| 2026-04-16 08:59 | 27.78254 | 115.66198 | 29722 ft | 435 kts | 204° |
| 2026-04-16 08:59 | 27.75402 | 115.65054 | 30070 ft | 435 kts | 204° |
| 2026-04-16 09:00 | 27.72561 | 115.63912 | 30474 ft | 432 kts | 204° |
| 2026-04-16 09:00 | 27.69751 | 115.62785 | 30999 ft | 426 kts | 204° |
| 2026-04-16 09:00 | 27.66973 | 115.61667 | 31431 ft | 422 kts | 204° |
| 2026-04-16 09:00 | 27.64215 | 115.60552 | 31816 ft | 420 kts | 204° |
| 2026-04-16 09:01 | 27.58699 | 115.58312 | 32010 ft | 425 kts | 204° |
| 2026-04-16 09:01 | 27.55902 | 115.57178 | 32020 ft | 429 kts | 204° |
| 2026-04-16 09:02 | 27.50275 | 115.54906 | 32022 ft | 434 kts | 204° |
| 2026-04-16 09:02 | 27.44577 | 115.52621 | 32020 ft | 435 kts | 204° |
| 2026-04-16 09:03 | 27.38880 | 115.50332 | 32024 ft | 435 kts | 204° |
| 2026-04-16 09:03 | 27.33188 | 115.48042 | 32001 ft | 435 kts | 204° |
| 2026-04-16 09:04 | 27.27485 | 115.45753 | 32003 ft | 435 kts | 204° |
| 2026-04-16 09:04 | 27.21773 | 115.43464 | 32015 ft | 436 kts | 204° |
| 2026-04-16 09:05 | 27.16059 | 115.41176 | 32022 ft | 436 kts | 204° |
| 2026-04-16 09:05 | 27.10341 | 115.38887 | 31998 ft | 436 kts | 203° |
| 2026-04-16 09:06 | 27.04611 | 115.36599 | 31997 ft | 438 kts | 203° |
| 2026-04-16 09:06 | 26.98863 | 115.34309 | 32001 ft | 439 kts | 203° |
| 2026-04-16 09:07 | 26.93107 | 115.32015 | 32029 ft | 439 kts | 204° |
| 2026-04-16 09:07 | 26.87357 | 115.29728 | 32032 ft | 438 kts | 204° |
| 2026-04-16 09:08 | 26.81644 | 115.27456 | 31996 ft | 439 kts | 203° |
| 2026-04-16 09:08 | 26.75874 | 115.25161 | 31993 ft | 441 kts | 203° |
| 2026-04-16 09:09 | 26.70081 | 115.22850 | 31993 ft | 443 kts | 203° |
| 2026-04-16 09:09 | 26.64276 | 115.20537 | 31993 ft | 443 kts | 203° |
| 2026-04-16 09:10 | 26.58460 | 115.18231 | 31978 ft | 444 kts | 203° |
| 2026-04-16 09:10 | 26.52625 | 115.15921 | 31969 ft | 446 kts | 202° |
| 2026-04-16 09:11 | 26.46764 | 115.13607 | 31977 ft | 448 kts | 202° |
| 2026-04-16 09:11 | 26.40885 | 115.11285 | 31976 ft | 449 kts | 202° |
| 2026-04-16 09:12 | 26.34993 | 115.08955 | 31986 ft | 449 kts | 203° |
| 2026-04-16 09:12 | 26.29097 | 115.06626 | 31957 ft | 450 kts | 203° |
| 2026-04-16 09:13 | 26.23174 | 115.04295 | 31954 ft | 452 kts | 203° |
| 2026-04-16 09:13 | 26.17232 | 115.01960 | 31959 ft | 453 kts | 203° |
| 2026-04-16 09:14 | 26.11285 | 114.99619 | 31989 ft | 453 kts | 203° |
| 2026-04-16 09:14 | 26.05343 | 114.97288 | 31995 ft | 452 kts | 203° |
| 2026-04-16 09:15 | 25.99413 | 114.94967 | 31994 ft | 452 kts | 203° |
| 2026-04-16 09:15 | 25.93490 | 114.92646 | 31990 ft | 451 kts | 203° |
| 2026-04-16 09:16 | 25.87571 | 114.90329 | 31986 ft | 451 kts | 203° |
| 2026-04-16 09:16 | 25.81656 | 114.88016 | 31955 ft | 451 kts | 202° |
| 2026-04-16 09:17 | 25.75517 | 114.86347 | 31949 ft | 456 kts | 197° |
| 2026-04-16 09:17 | 25.69326 | 114.84795 | 31950 ft | 457 kts | 197° |
| 2026-04-16 09:18 | 25.63125 | 114.83239 | 31951 ft | 457 kts | 197° |
| 2026-04-16 09:18 | 25.56912 | 114.81691 | 31958 ft | 458 kts | 197° |
| 2026-04-16 09:19 | 25.50698 | 114.80141 | 31954 ft | 458 kts | 197° |
| 2026-04-16 09:19 | 25.44485 | 114.78590 | 31962 ft | 458 kts | 197° |
| 2026-04-16 09:20 | 25.38266 | 114.77036 | 31968 ft | 458 kts | 197° |
| 2026-04-16 09:20 | 25.32092 | 114.75493 | 31966 ft | 458 kts | 197° |
| 2026-04-16 09:21 | 25.25874 | 114.73948 | 31962 ft | 458 kts | 198° |
| 2026-04-16 09:21 | 25.19659 | 114.72410 | 31966 ft | 458 kts | 198° |
| 2026-04-16 09:22 | 25.13442 | 114.70870 | 31976 ft | 458 kts | 198° |
| 2026-04-16 09:22 | 25.07230 | 114.69330 | 31979 ft | 458 kts | 198° |
| 2026-04-16 09:23 | 25.01014 | 114.67795 | 31988 ft | 457 kts | 198° |
| 2026-04-16 09:23 | 24.94812 | 114.66260 | 31997 ft | 457 kts | 198° |
| 2026-04-16 09:24 | 24.88616 | 114.64726 | 31998 ft | 456 kts | 198° |
| 2026-04-16 09:24 | 24.82432 | 114.63203 | 32007 ft | 456 kts | 198° |
| 2026-04-16 09:25 | 24.76242 | 114.61685 | 32008 ft | 455 kts | 198° |
| 2026-04-16 09:25 | 24.70138 | 114.59942 | 32011 ft | 449 kts | 206° |
| 2026-04-16 09:26 | 24.64688 | 114.56778 | 32017 ft | 442 kts | 214° |
| 2026-04-16 09:26 | 24.59362 | 114.53403 | 32019 ft | 442 kts | 214° |
| 2026-04-16 09:27 | 24.54035 | 114.50042 | 32018 ft | 441 kts | 214° |
| 2026-04-16 09:27 | 24.48709 | 114.46685 | 32019 ft | 441 kts | 214° |
| 2026-04-16 09:28 | 24.43558 | 114.43103 | 31995 ft | 434 kts | 224° |
| 2026-04-16 09:28 | 24.39778 | 114.38066 | 32003 ft | 427 kts | 243° |
| 2026-04-16 09:29 | 24.37459 | 114.32094 | 31998 ft | 426 kts | 249° |
| 2026-04-16 09:29 | 24.35249 | 114.26072 | 31997 ft | 426 kts | 249° |
| 2026-04-16 09:30 | 24.33031 | 114.20049 | 31993 ft | 426 kts | 249° |
| 2026-04-16 09:30 | 24.30817 | 114.14023 | 31992 ft | 426 kts | 249° |
| 2026-04-16 09:31 | 24.28203 | 114.08198 | 31993 ft | 429 kts | 236° |
| 2026-04-16 09:31 | 24.23859 | 114.03673 | 31972 ft | 438 kts | 217° |
| 2026-04-16 09:32 | 24.18694 | 114.00099 | 31976 ft | 440 kts | 217° |
| 2026-04-16 09:32 | 24.13523 | 113.96513 | 31985 ft | 440 kts | 217° |
| 2026-04-16 09:33 | 24.09417 | 113.93268 | 31981 ft | 435 kts | 226° |
| 2026-04-16 09:33 | 24.04928 | 113.88822 | 31986 ft | 436 kts | 225° |
| 2026-04-16 09:34 | 24.00425 | 113.84385 | 31985 ft | 436 kts | 225° |
| 2026-04-16 09:34 | 23.95904 | 113.79957 | 31966 ft | 436 kts | 225° |
| 2026-04-16 09:35 | 23.91387 | 113.75521 | 31976 ft | 437 kts | 225° |
| 2026-04-16 09:35 | 23.86864 | 113.71079 | 31992 ft | 437 kts | 225° |
| 2026-04-16 09:36 | 23.82332 | 113.66645 | 31991 ft | 437 kts | 225° |
| 2026-04-16 09:36 | 23.77803 | 113.62213 | 31993 ft | 437 kts | 225° |
| 2026-04-16 09:37 | 23.73272 | 113.57788 | 31962 ft | 437 kts | 225° |
| 2026-04-16 09:37 | 23.68728 | 113.53343 | 31470 ft | 440 kts | 225° |
| 2026-04-16 09:37 | 23.66458 | 113.51128 | 30882 ft | 437 kts | 225° |
| 2026-04-16 09:38 | 23.64193 | 113.48924 | 30299 ft | 437 kts | 225° |
| 2026-04-16 09:38 | 23.61924 | 113.46717 | 29691 ft | 438 kts | 225° |
| 2026-04-16 09:38 | 23.59652 | 113.44506 | 29029 ft | 439 kts | 225° |
| 2026-04-16 09:38 | 23.57367 | 113.42281 | 28393 ft | 441 kts | 225° |
| 2026-04-16 09:39 | 23.55009 | 113.40127 | 27758 ft | 445 kts | 219° |
| 2026-04-16 09:39 | 23.52372 | 113.38329 | 27139 ft | 450 kts | 211° |
| 2026-04-16 09:39 | 23.49478 | 113.36969 | 26532 ft | 457 kts | 203° |
| 2026-04-16 09:39 | 23.46461 | 113.35853 | 25932 ft | 459 kts | 203° |
| 2026-04-16 09:40 | 23.43434 | 113.34724 | 25343 ft | 460 kts | 203° |
| 2026-04-16 09:40 | 23.40406 | 113.33583 | 24773 ft | 459 kts | 203° |
| 2026-04-16 09:40 | 23.37418 | 113.32456 | 24214 ft | 449 kts | 203° |
| 2026-04-16 09:40 | 23.34498 | 113.31358 | 23665 ft | 440 kts | 203° |
| 2026-04-16 09:41 | 23.31632 | 113.30281 | 23057 ft | 432 kts | 203° |
| 2026-04-16 09:41 | 23.28809 | 113.29220 | 22398 ft | 426 kts | 202° |
| 2026-04-16 09:41 | 23.26026 | 113.28173 | 21783 ft | 420 kts | 202° |
| 2026-04-16 09:41 | 23.23278 | 113.27138 | 21168 ft | 416 kts | 202° |
| 2026-04-16 09:42 | 23.20561 | 113.26114 | 20549 ft | 411 kts | 203° |
| 2026-04-16 09:42 | 23.17875 | 113.25103 | 20051 ft | 405 kts | 202° |
| 2026-04-16 09:42 | 23.15237 | 113.24114 | 19629 ft | 397 kts | 202° |
| 2026-04-16 09:42 | 23.12651 | 113.23144 | 19216 ft | 390 kts | 202° |
| 2026-04-16 09:43 | 23.10054 | 113.22364 | 18814 ft | 387 kts | 193° |
| 2026-04-16 09:43 | 23.07369 | 113.22195 | 18401 ft | 387 kts | 181° |
| 2026-04-16 09:43 | 23.04714 | 113.22676 | 17975 ft | 389 kts | 168° |
| 2026-04-16 09:43 | 23.02209 | 113.23790 | 17520 ft | 391 kts | 155° |
| 2026-04-16 09:44 | 22.99984 | 113.25482 | 17071 ft | 393 kts | 142° |
| 2026-04-16 09:44 | 22.98152 | 113.27680 | 16614 ft | 394 kts | 128° |
| 2026-04-16 09:44 | 22.96784 | 113.30255 | 16172 ft | 393 kts | 120° |
| 2026-04-16 09:44 | 22.95561 | 113.32850 | 15749 ft | 390 kts | 120° |
| 2026-04-16 09:45 | 22.94306 | 113.35487 | 15310 ft | 386 kts | 120° |
| 2026-04-16 09:45 | 22.93092 | 113.38027 | 14890 ft | 383 kts | 120° |
| 2026-04-16 09:45 | 22.91832 | 113.40554 | 14475 ft | 378 kts | 125° |
| 2026-04-16 09:45 | 22.90284 | 113.42763 | 14060 ft | 358 kts | 136° |
| 2026-04-16 09:46 | 22.88497 | 113.44535 | 13705 ft | 339 kts | 146° |
| 2026-04-16 09:46 | 22.86573 | 113.45885 | 13320 ft | 321 kts | 156° |
| 2026-04-16 09:46 | 22.84580 | 113.46840 | 12941 ft | 306 kts | 165° |
| 2026-04-16 09:46 | 22.82576 | 113.47423 | 12562 ft | 292 kts | 173° |
| 2026-04-16 09:47 | 22.80603 | 113.47672 | 12198 ft | 280 kts | 181° |
| 2026-04-16 09:47 | 22.78697 | 113.47626 | 11834 ft | 269 kts | 188° |
| 2026-04-16 09:47 | 22.76860 | 113.47483 | 11471 ft | 261 kts | 187° |
| 2026-04-16 09:47 | 22.75073 | 113.47353 | 11111 ft | 254 kts | 187° |
| 2026-04-16 09:48 | 22.73335 | 113.47228 | 10753 ft | 247 kts | 187° |
| 2026-04-16 09:48 | 22.71638 | 113.47105 | 10410 ft | 245 kts | 187° |
| 2026-04-16 09:48 | 22.69933 | 113.46980 | 10072 ft | 246 kts | 187° |
| 2026-04-16 09:48 | 22.68216 | 113.46853 | 9722 ft | 248 kts | 187° |
| 2026-04-16 09:49 | 22.66492 | 113.46723 | 9343 ft | 249 kts | 187° |
| 2026-04-16 09:49 | 22.64753 | 113.46676 | 8962 ft | 252 kts | 176° |
| 2026-04-16 09:49 | 22.63099 | 113.47245 | 8585 ft | 251 kts | 153° |
| 2026-04-16 09:49 | 22.61769 | 113.48445 | 8211 ft | 250 kts | 131° |
| 2026-04-16 09:50 | 22.60953 | 113.50098 | 7860 ft | 252 kts | 107° |
| 2026-04-16 09:50 | 22.60740 | 113.51990 | 7506 ft | 256 kts | 92° |
| 2026-04-16 09:50 | 22.60861 | 113.53920 | 7146 ft | 259 kts | 72° |
| 2026-04-16 09:50 | 22.61756 | 113.55585 | 6801 ft | 258 kts | 43° |
| 2026-04-16 09:51 | 22.63279 | 113.56558 | 6460 ft | 254 kts | 12° |
| 2026-04-16 09:51 | 22.65029 | 113.56744 | 6101 ft | 254 kts | 358° |
| 2026-04-16 09:51 | 22.66805 | 113.56798 | 5743 ft | 256 kts | 359° |
| 2026-04-16 09:51 | 22.68556 | 113.56854 | 5595 ft | 247 kts | 360° |
| 2026-04-16 09:52 | 22.70242 | 113.56910 | 5468 ft | 238 kts | 359° |
| 2026-04-16 09:52 | 22.71869 | 113.56964 | 5343 ft | 229 kts | 359° |
| 2026-04-16 09:52 | 22.73437 | 113.57018 | 5218 ft | 221 kts | 0° |
| 2026-04-16 09:52 | 22.74947 | 113.57065 | 5099 ft | 214 kts | 359° |
| 2026-04-16 09:53 | 22.76430 | 113.57108 | 4979 ft | 212 kts | 0° |
| 2026-04-16 09:53 | 22.77904 | 113.57151 | 4860 ft | 212 kts | 359° |
| 2026-04-16 09:53 | 22.79351 | 113.57190 | 4777 ft | 211 kts | 359° |
| 2026-04-16 09:53 | 22.80820 | 113.57233 | 4650 ft | 211 kts | 0° |
| 2026-04-16 09:54 | 22.82217 | 113.57568 | 4518 ft | 204 kts | 22° |
| 2026-04-16 09:54 | 22.83398 | 113.58403 | 4396 ft | 203 kts | 43° |
| 2026-04-16 09:54 | 22.84251 | 113.59618 | 4267 ft | 204 kts | 62° |
| 2026-04-16 09:54 | 22.84904 | 113.60985 | 4145 ft | 205 kts | 63° |
| 2026-04-16 09:55 | 22.85562 | 113.62357 | 4030 ft | 205 kts | 64° |
| 2026-04-16 09:55 | 22.86018 | 113.63794 | 3899 ft | 201 kts | 84° |
| 2026-04-16 09:55 | 22.86001 | 113.65286 | 3779 ft | 197 kts | 104° |
| 2026-04-16 09:55 | 22.85534 | 113.66662 | 3663 ft | 194 kts | 123° |
| 2026-04-16 09:56 | 22.84689 | 113.67774 | 3539 ft | 190 kts | 142° |
| 2026-04-16 09:56 | 22.83581 | 113.68524 | 3422 ft | 188 kts | 158° |
| 2026-04-16 09:56 | 22.82410 | 113.69166 | 3308 ft | 189 kts | 155° |
| 2026-04-16 09:56 | 22.81249 | 113.69806 | 3214 ft | 185 kts | 157° |
| 2026-04-16 09:57 | 22.80102 | 113.70438 | 3086 ft | 184 kts | 157° |
| 2026-04-16 09:57 | 22.78953 | 113.71069 | 2870 ft | 185 kts | 156° |
| 2026-04-16 09:57 | 22.77826 | 113.71689 | 2650 ft | 178 kts | 157° |
| 2026-04-16 09:57 | 22.76730 | 113.72291 | 2425 ft | 176 kts | 156° |
| 2026-04-16 09:58 | 22.75647 | 113.72886 | 2199 ft | 172 kts | 156° |
| 2026-04-16 09:58 | 22.74605 | 113.73459 | 1979 ft | 164 kts | 156° |
| 2026-04-16 09:58 | 22.73630 | 113.73995 | 1798 ft | 149 kts | 156° |
| 2026-04-16 09:58 | 22.72742 | 113.74482 | 1596 ft | 139 kts | 155° |
| 2026-04-16 09:59 | 22.71893 | 113.74948 | 1413 ft | 136 kts | 156° |
| 2026-04-16 09:59 | 22.71062 | 113.75404 | 1241 ft | 133 kts | 157° |
| 2026-04-16 09:59 | 22.70232 | 113.75859 | 1069 ft | 136 kts | 156° |
| 2026-04-16 09:59 | 22.69392 | 113.76320 | 910 ft | 135 kts | 157° |
| 2026-04-16 10:00 | 22.68560 | 113.76776 | 731 ft | 135 kts | 156° |
| 2026-04-16 10:00 | 22.67719 | 113.77238 | 567 ft | 134 kts | 160° |
| 2026-04-16 10:00 | 22.66900 | 113.77690 | 369 ft | 132 kts | 156° |
| 2026-04-16 10:01 | 22.65260 | 113.78592 | 40 ft | 133 kts | 154° |
| 2026-04-16 10:01 | 22.64503 | 113.79006 | 17 ft | 107 kts | 153° |
| 2026-04-16 10:01 | 22.63990 | 113.79288 | 16 ft | 58 kts | 153° |
| 2026-04-16 10:01 | 22.63706 | 113.79445 | 16 ft | 36 kts | 152° |
| 2026-04-16 10:02 | 22.63545 | 113.79593 | 17 ft | 22 kts | 126° |
| 2026-04-16 10:02 | 22.63481 | 113.79702 | 15 ft | 15 kts | 109° |
| 2026-04-16 10:02 | 22.63505 | 113.79813 | 16 ft | 15 kts | 63° |
| 2026-04-16 10:02 | 22.63550 | 113.79908 | 15 ft | 13 kts | 62° |
| 2026-04-16 10:03 | 22.63591 | 113.79997 | 15 ft | 14 kts | 63° |
| 2026-04-16 10:03 | 22.63642 | 113.80105 | 15 ft | 18 kts | 63° |
| 2026-04-16 10:03 | 22.63702 | 113.80234 | 15 ft | 20 kts | 63° |
| 2026-04-16 10:03 | 22.63763 | 113.80365 | 15 ft | 17 kts | 63° |
| 2026-04-16 10:04 | 22.63778 | 113.80447 | 16 ft | 9 kts | 124° |
| 2026-04-16 10:04 | 22.63723 | 113.80485 | 15 ft | 11 kts | 153° |
| 2026-04-16 10:04 | 22.63646 | 113.80525 | 15 ft | 8 kts | 169° |
| 2026-04-16 10:04 | 22.63628 | 113.80512 | 16 ft | 6 kts | 213° |
| 2026-04-16 10:05 | 22.63613 | 113.80488 | 15 ft | 3 kts | 243° |
| 2026-04-16 10:05 | 22.63606 | 113.80473 | 15 ft | 2 kts | 243° |
| 2026-04-16 10:05 | 22.63605 | 113.80470 | 15 ft | 0 kts | 243° |